Flight Track Log - Related Links

Times and Time Zones

All times are in EDT time to prevent confusion due to time zone crossing. See the UAL4401 flight status page for this flight to view local times or setup timezone preferences in your user account.


Time Position Orientation Groundspeed Altitude Reporting Facility
EDT Latitude Longitude Course Direction KTS MPH feet Rate Location/Type
Sun 03:44:58 PM 43.9789 -102.8367 110° East 278 320 35,000  Level Denver Center
Sun 03:45:00 PM 43.9516 -102.6689 97° East  Level FlightAware Approximate
Sun 03:46:00 PM 43.9501 -102.5231 90° East  Level FlightAware Approximate
Sun 03:46:00 PM 43.9700 -102.7161 96° East 280 322 9,300  Level Denver Center
Sun 03:47:00 PM 43.9500 -102.3772 90° East  Level FlightAware Approximate
Sun 03:47:02 PM 43.9647 -102.6150 94° East 291 335 10,600  Level Denver Center
Sun 03:48:00 PM 43.9463 -102.2184 96° East  Level FlightAware Approximate
Sun 03:48:04 PM 43.9603 -102.4594 92° East 326 375 11,600  Level Denver Center
Sun 03:49:00 PM 43.9341 -102.0602 96° East  Level FlightAware Approximate
Sun 03:49:06 PM 43.9547 -102.3167 93° East 356 410 12,800  Level Denver Center
Sun 03:50:08 PM 43.9483 -102.1706 93° East 372 428 13,800 823 Climbing Denver Center
Sun 03:51:10 PM 43.9436 -102.0217 92° East 382 440 14,500 774 Climbing Denver Center
Sun 03:52:12 PM 43.9356 -101.8600 94° East 404 465 15,400 1,016 Climbing Denver Center
Sun 03:53:14 PM 43.9294 -101.6683 92° East 413 475 16,600 1,113 Climbing Denver Center
Sun 03:54:16 PM 43.9239 -101.5089 93° East 416 479 17,700 1,056 Climbing Denver Center
Sun 03:55:19 PM 43.9192 -101.3517 92° East 412 474 18,800 1,099 Climbing Denver Center
Sun 03:56:27 PM 43.9117 -101.1625 93° East 414 476 20,100 1,062 Climbing Minneapolis Center
Sun 03:57:29 PM 43.9058 -101.0017 93° East 415 478 21,100 1,016 Climbing Minneapolis Center
Sun 03:58:31 PM 43.8989 -100.8406 93° East 417 480 22,200 1,065 Climbing Minneapolis Center
Sun 03:59:33 PM 43.8919 -100.6781 93° East 420 483 23,300 1,258 Climbing Minneapolis Center
Sun 04:00:35 PM 43.8847 -100.5178 94° East 420 483 24,800 1,452 Climbing Minneapolis Center
Sun 04:01:37 PM 43.8772 -100.3692 94° East 404 465 26,300 1,403 Climbing Minneapolis Center
Sun 04:02:39 PM 43.8703 -100.2164 94° East 400 460 27,700 1,355 Climbing Minneapolis Center
Sun 04:03:41 PM 43.8625 -100.0367 93° East 396 456 29,100 1,248 Climbing Minneapolis Center
Sun 04:04:44 PM 43.8547 -99.8864 94° East 394 453 30,300 1,104 Climbing Minneapolis Center
Sun 04:05:46 PM 43.8461 -99.7333 94° East 397 457 31,400 1,016 Climbing Minneapolis Center
Sun 04:06:48 PM 43.8383 -99.5783 94° East 403 464 32,400 1,113 Climbing Minneapolis Center
Sun 04:07:50 PM 43.8275 -99.3892 94° East 410 472 33,700 1,065 Climbing Minneapolis Center
Sun 04:08:52 PM 43.8186 -99.2303 94° East 414 476 34,600 629 Climbing Minneapolis Center
Sun 04:09:54 PM 43.8069 -99.0694 96° East 419 482 35,000 194 Climbing Minneapolis Center
Sun 04:10:56 PM 43.7700 -98.9053 107° East 446 513 35,000  Level Minneapolis Center
Sun 04:11:58 PM 43.7317 -98.7353 107° East 460 529 35,000  Level Minneapolis Center
Sun 04:13:00 PM 43.6861 -98.5369 108° East 464 534 35,000  Level Minneapolis Center
Sun 04:14:02 PM 43.6467 -98.3681 108° East 463 533 35,000  Level Minneapolis Center
Sun 04:15:04 PM 43.6072 -98.1994 108° East 464 534 35,000  Level Minneapolis Center
Sun 04:16:06 PM 43.5683 -98.0297 107° East 466 536 35,000  Level Minneapolis Center
Sun 04:17:09 PM 43.5272 -97.8600 108° East 468 539 35,000  Level Minneapolis Center
Sun 04:18:11 PM 43.4856 -97.6869 108° East 476 548 35,000  Level Minneapolis Center
Sun 04:19:26 PM 43.4272 -97.4419 108° East 482 555 35,000  Level Minneapolis Center
Sun 04:20:27 PM 43.3847 -97.2700 109° East 480 552 35,000  Level Minneapolis Center
Sun 04:21:41 PM 43.3433 -97.0972 108° East 479 551 35,000  Level Minneapolis Center
Sun 04:22:44 PM 43.2925 -96.8947 109° East 473 544 35,000  Level Minneapolis Center
Sun 04:23:46 PM 43.2503 -96.7247 109° East 474 545 35,000  Level Minneapolis Center
Sun 04:24:48 PM 43.1994 -96.5200 109° East 475 547 35,000  Level Minneapolis Center
Sun 04:25:50 PM 43.1561 -96.3506 109° East 474 545 35,000  Level Minneapolis Center
Sun 04:26:52 PM 43.1131 -96.1828 109° East 472 543 35,000  Level Minneapolis Center
Sun 04:27:54 PM 43.0783 -96.0481 109° East 472 543 35,000  Level Minneapolis Center
Sun 04:28:56 PM 43.0250 -95.8400 109° East 482 555 35,000  Level Minneapolis Center
Sun 04:29:58 PM 42.9725 -95.6350 109° East 483 556 35,000  Level Minneapolis Center
Sun 04:31:00 PM 42.9300 -95.4758 110° East 464 534 35,000  Level Minneapolis Center
Sun 04:32:02 PM 42.8858 -95.3108 110° East 462 532 35,000  Level Minneapolis Center
Sun 04:33:04 PM 42.8419 -95.1458 110° East 466 536 35,000  Level Minneapolis Center
Sun 04:34:07 PM 42.7981 -94.9808 110° East 466 536 35,000  Level Minneapolis Center
Sun 04:35:08 PM 42.7625 -94.8486 110° East 466 536 35,000  Level Minneapolis Center
Sun 04:36:11 PM 42.7064 -94.6439 110° East 463 533 35,000  Level Minneapolis Center
Sun 04:37:13 PM 42.6189 -94.4856 127° Southeast 450 518 35,000  Level Minneapolis Center
Sun 04:38:17 PM 42.5075 -94.4256 158° South 437 503 35,000  Level Minneapolis Center
Sun 04:39:19 PM 42.3872 -94.3619 159° South 446 513 35,000  Level Minneapolis Center
Sun 04:40:21 PM 42.3244 -94.2589 129° Southeast 454 522 35,000  Level Minneapolis Center
Sun 04:41:24 PM 42.3244 -94.0328 90° East 462 532 35,000  Level Minneapolis Center
Sun 04:42:26 PM 42.3444 -93.8597 81° East 470 541 35,000  Level Minneapolis Center
Sun 04:43:28 PM 42.3625 -93.6839 82° East 475 547 35,000  Level Minneapolis Center
Sun 04:44:30 PM 42.3808 -93.5119 82° East 470 541 35,000  Level Minneapolis Center
Sun 04:45:32 PM 42.3989 -93.3397 82° East 468 539 35,000  Level Minneapolis Center
Sun 04:46:34 PM 42.4203 -93.1306 82° East 473 544 35,000  Level Minneapolis Center
Sun 04:47:12 PM 42.4314 -93.0239 82° East 474 545 35,000  Level Chicago Center
Sun 04:48:14 PM 42.4475 -92.8517 83° East 468 539 35,000  Level Chicago Center
Sun 04:49:17 PM 42.4650 -92.6750 82° East 475 547 35,000  Level Chicago Center
Sun 04:50:19 PM 42.4864 -92.4581 82° East 486 559 35,000  Level Chicago Center
Sun 04:51:21 PM 42.5028 -92.2822 83° East 480 552 35,000 -387 Level Chicago Center
Sun 04:52:23 PM 42.5189 -92.1058 83° East 478 550 34,200 -823 Descending Chicago Center
Sun 04:53:25 PM 42.5244 -91.9253 88° East 487 560 33,300 -1,065 Descending Chicago Center
Sun 04:54:27 PM 42.5256 -91.7397 89° East 501 577 32,000 -1,452 Descending Chicago Center
Sun 04:55:29 PM 42.5264 -91.5233 90° East 494 568 30,300 -1,258 Descending Chicago Center
Sun 04:56:31 PM 42.5272 -91.3439 90° East 490 564 29,400 -629 Descending Chicago Center
Sun 04:57:33 PM 42.5264 -91.1694 90° East 475 547 29,000 -194 Descending Chicago Center
Sun 04:58:35 PM 42.5261 -90.9506 90° East 489 563 29,000  Level Chicago Center
Sun 04:59:38 PM 42.5247 -90.7669 91° East 493 567 29,000  Level Chicago Center
Sun 05:00:40 PM 42.5244 -90.5833 90° East 493 567 29,000 -576 Level Chicago Center
Sun 05:01:43 PM 42.5231 -90.4000 91° East 493 567 27,800 -1,248 Descending Chicago Center
Sun 05:02:45 PM 42.5103 -90.2219 96° East 482 555 26,400 -1,790 Descending Chicago Center
Sun 05:03:47 PM 42.5158 -90.0039 88° East 492 566 24,100 -2,323 Descending Chicago Center
Sun 05:04:49 PM 42.5286 -89.8225 84° East 466 536 21,600 -2,323 Descending Chicago Center
Sun 05:05:51 PM 42.5208 -89.6497 93° East 462 532 19,300 -2,274 Descending Chicago Center
Sun 05:06:53 PM 42.5000 -89.4817 99° East 453 521 16,900 -1,839 Descending Chicago Center
Sun 05:07:55 PM 42.4806 -89.3258 100° East 426 490 15,500 -919 Descending Chicago Center
Sun 05:08:57 PM 42.4583 -89.1472 100° East 416 479 15,000 -1,065 Descending Chicago Center
Sun 05:09:59 PM 42.4397 -89.0014 100° East 398 458 13,300 -1,548 Descending Chicago Center
Sun 05:11:01 PM 42.4217 -88.8611 100° East 382 440 11,800 -1,258 Descending Chicago Center
Sun 05:12:03 PM 42.4058 -88.7392 100° East 337 388 10,700 -1,210 Descending Chicago Center
Sun 05:13:05 PM 42.3911 -88.6300 100° East 302 348 9,300 -823 Descending Chicago Center
Sun 05:14:07 PM 42.3744 -88.5025 100° East 294 338 9,000 -629 Descending Chicago Center
Sun 05:15:09 PM 42.3333 -88.4153 123° Southeast 283 326 8,000 -960 Descending Chicago Center
Sun 05:16:12 PM 42.2947 -88.3419 125° Southeast 267 307 7,000 -816 Descending Chicago Center
Sun 05:17:14 PM 42.2497 -88.2606 127° Southeast 231 266 6,300 -919 Descending Chicago Center
Sun 05:18:16 PM 42.2111 -88.1956 129° Southeast 224 258 5,100 -581 Descending Chicago Center
Sun 05:19:18 PM 42.1708 -88.1344 132° Southeast 222 255 5,100 -532 Level Chicago Center
Sun 05:20:20 PM 42.1261 -88.0894 143° Southeast 206 237 4,000 -1,156 Descending Chicago Center
Sun 05:21:07 PM 42.0833 -88.0500 146° Southeast 184 212 3,000 -1,277 Descending Chicago TRACON

Login

Don't have an account? Register now (free) for customized features, flight alerts, and more!